Date,TemperatureHighF,TemperatureAvgF,TemperatureLowF,DewpointHighF,DewpointAvgF,DewpointLowF,HumidityHigh,HumidityAvg,HumidityLow,PressureMaxIn,PressureMinIn,WindSpeedMaxMPH,WindSpeedAvgMPH,GustSpeedMaxMPH,PrecipitationSumIn
2013-1-1,32.3,26.4,12.2,27.0,14.8,1.0,82,62,51,29.90,29.69,20,6,31,0.00
2013-1-2,23.9,13.7,3.4,17.0,5.8,-6.0,78,71,60,30.11,29.89,9,3,17,0.00
2013-1-3,19.4,10.2,-0.2,11.0,-1.8,-9.0,79,60,31,30.14,30.00,11,3,15,0.00
2013-1-4,36.1,28.0,18.3,22.0,19.4,12.0,86,71,56,29.99,29.79,19,5,22,0.00
2013-1-5,36.5,28.9,14.3,24.0,18.2,12.0,91,66,42,30.24,29.82,12,4,26,0.00
2013-1-6,37.1,27.9,15.6,28.0,23.4,13.0,93,84,68,30.21,29.93,7,1,14,0.00
2013-1-7,33.2,27.1,10.9,28.0,19.5,9.0,93,74,48,30.39,29.97,9,2,13,0.00
2013-1-8,40.9,31.0,17.6,26.0,22.7,14.0,89,72,54,30.36,30.27,8,2,13,0.00
2013-1-9,41.5,32.2,16.3,34.0,25.2,15.0,95,77,50,30.39,29.98,11,3,22,0.02
2013-1-10,41.6,36.9,27.8,30.0,24.0,22.0,81,60,48,30.52,30.03,19,6,29,0.00
2013-1-11,36.2,29.2,18.9,31.0,24.8,17.0,96,85,60,30.52,30.22,3,0,10,0.14
2013-1-12,41.6,36.1,32.0,40.0,35.2,31.0,98,97,94,30.22,30.11,4,0,8,0.04
2013-1-13,48.5,41.6,32.3,47.0,40.9,32.0,98,97,94,30.13,29.97,8,1,20,0.01
2013-1-14,54.2,44.3,34.4,48.0,39.1,26.0,98,83,62,30.24,29.86,11,3,25,0.00
2013-1-15,36.9,31.0,24.3,26.0,24.2,23.0,94,77,60,30.32,30.21,8,1,12,0.00
2013-1-16,31.6,28.7,25.9,30.0,27.1,24.0,97,93,86,30.24,29.80,2,0,4,0.00
2013-1-17,36.4,30.2,22.5,30.0,23.9,8.0,94,78,54,30.09,29.81,19,3,19,0.11
2013-1-18,22.4,14.7,8.4,8.0,0.9,-5.0,79,56,37,30.42,30.06,13,3,27,0.00
2013-1-19,40.9,32.0,17.7,27.0,19.2,7.0,66,60,51,30.34,29.84,14,3,21,0.02
2013-1-20,45.3,35.6,22.6,30.0,22.4,10.0,71,60,37,29.90,29.51,21,6,28,0.00
2013-1-21,22.9,18.6,13.7,16.0,7.6,1.0,93,64,49,30.06,29.79,10,2,22,0.00
2013-1-22,17.9,13.9,4.6,16.0,5.3,-5.0,93,70,47,30.06,29.76,13,4,21,0.00
2013-1-23,8.9,3.4,-6.6,-4.0,-10.3,-15.0,82,55,34,30.14,30.05,14,3,23,0.00
2013-1-24,13.9,5.0,-4.4,-9.0,-12.0,-14.0,74,47,32,30.24,30.10,15,5,34,0.00
2013-1-25,17.5,10.4,3.2,8.0,-8.0,-12.0,82,44,29,30.31,30.07,14,3,22,0.00
2013-1-26,18.9,12.0,6.5,8.0,-0.3,-8.0,87,61,33,30.23,30.02,12,4,23,0.00
2013-1-27,24.8,15.8,9.2,3.0,0.1,-5.0,68,52,31,30.47,30.22,10,4,19,0.00
2013-1-28,26.2,20.8,15.1,20.0,11.0,0.0,93,69,35,30.46,30.03,4,1,9,0.00
2013-1-29,34.2,26.6,14.9,29.0,24.3,13.0,97,91,79,30.18,30.04,3,0,6,0.07
2013-1-30,56.6,42.2,30.1,55.0,41.3,29.0,98,96,94,30.13,29.41,9,2,24,0.25
2013-1-31,58.4,42.0,25.3,57.0,34.7,14.0,98,76,51,29.52,28.90,22,7,36,1.19
2013-2-1,26.8,22.6,17.2,15.0,8.4,3.0,67,55,43,30.05,29.53,16,6,26,0.00
2013-2-2,24.5,19.0,10.5,15.0,5.5,1.0,83,56,45,30.21,30.04,11,2,17,0.00
2013-2-3,25.5,20.4,11.0,18.0,15.8,9.0,94,82,67,30.05,29.73,7,0,7,0.00
2013-2-4,24.8,19.4,14.9,15.0,8.0,3.0,84,62,42,29.91,29.72,15,5,24,0.00
2013-2-5,27.9,19.9,13.6,17.0,9.4,4.0,87,65,48,30.02,29.91,5,1,10,0.00
2013-2-6,33.1,24.7,16.8,23.0,15.6,5.0,95,71,44,30.29,29.92,10,2,21,0.00
2013-2-7,25.7,18.6,9.1,5.0,1.3,-3.0,70,48,35,30.53,30.29,7,1,11,0.00
2013-2-8,20.4,17.6,13.6,18.0,12.1,-2.0,92,81,39,30.50,29.75,8,2,17,0.00
2013-2-9,18.5,14.5,10.6,16.0,10.8,1.0,93,85,64,30.23,29.71,19,6,25,0.00
2013-2-10,36.7,19.9,5.8,14.0,3.0,-3.0,90,53,23,30.41,30.23,9,2,17,0.01
2013-2-11,39.8,27.8,6.7,39.0,24.5,4.0,98,88,47,30.34,29.62,6,1,12,0.27
2013-2-12,39.7,35.1,31.9,36.0,28.4,25.0,94,77,62,29.85,29.61,15,6,24,0.00
2013-2-13,39.5,31.1,23.7,24.0,22.2,20.0,88,71,52,29.84,29.72,9,2,15,0.00
2013-2-14,40.8,28.5,16.5,23.0,20.6,15.0,94,75,43,29.97,29.71,7,1,11,0.00
2013-2-15,48.7,35.5,23.1,31.0,27.4,21.0,92,74,49,29.97,29.89,10,2,19,0.00
2013-2-16,37.4,30.8,23.2,28.0,22.5,9.0,95,73,45,29.96,29.74,5,1,16,0.05
2013-2-17,23.1,16.9,11.3,10.0,3.9,-1.0,79,57,46,29.73,29.42,22,9,34,0.00
2013-2-18,27.0,17.3,8.7,2.0,-1.4,-5.0,62,46,25,30.15,29.69,21,6,33,0.00
2013-2-19,43.2,31.8,16.7,37.0,20.7,2.0,97,66,40,30.18,29.58,7,1,11,0.18
2013-2-20,36.4,27.6,21.3,35.0,18.8,11.0,95,71,49,29.74,29.54,15,6,24,0.01
2013-2-21,27.6,22.6,18.1,16.0,12.1,8.0,76,65,51,30.23,29.73,17,6,26,0.00
2013-2-22,38.1,28.4,15.2,22.0,18.5,13.0,91,68,45,30.40,30.25,8,1,14,0.00
2013-2-23,33.1,29.8,25.4,30.0,26.7,21.0,96,88,81,30.32,29.93,5,1,9,0.00
2013-2-24,33.3,31.3,29.3,32.0,30.3,28.0,97,96,93,29.93,29.73,1,0,3,0.03
2013-2-25,36.5,31.9,26.9,33.0,29.8,25.0,97,91,81,30.23,29.90,7,0,9,0.08
2013-2-26,39.9,32.0,21.6,35.0,28.7,21.0,98,88,71,30.33,30.17,5,0,9,0.18
2013-2-27,36.9,32.4,30.5,36.0,31.5,28.0,98,96,89,30.17,29.62,17,2,19,0.00
2013-2-28,41.2,33.4,28.4,39.0,32.2,28.0,98,95,86,29.62,29.54,2,0,4,0.52
2013-3-1,37.7,34.0,31.0,33.0,28.8,26.0,98,82,69,29.68,29.54,8,3,17,0.10
2013-3-2,37.5,32.6,29.1,29.0,26.1,23.0,83,77,71,29.68,29.62,9,3,15,0.08
2013-3-3,37.2,30.8,25.8,29.0,25.3,22.0,88,80,69,29.64,29.57,8,2,15,0.07
2013-3-4,34.3,29.2,24.4,26.0,22.4,19.0,88,76,61,29.76,29.60,16,6,25,0.00
2013-3-5,42.5,33.1,26.0,29.0,25.3,21.0,93,74,54,30.08,29.77,15,2,17,0.00
2013-3-6,34.1,32.1,29.9,32.0,30.1,26.0,97,92,86,30.13,30.06,14,3,17,0.09
2013-3-7,32.5,29.2,27.5,29.0,27.2,25.0,96,92,85,30.13,30.04,9,3,16,0.01
2013-3-8,38.9,33.0,27.5,30.0,26.6,20.0,97,79,51,30.19,29.99,12,2,29,0.01
2013-3-9,55.1,38.1,19.8,26.0,17.6,9.0,96,52,16,30.35,30.18,4,1,12,0.14
2013-3-10,46.6,31.9,13.2,31.0,24.3,11.0,96,76,49,30.40,30.29,5,1,9,0.00
2013-3-11,49.8,39.1,27.3,39.0,31.4,26.0,96,76,48,30.30,30.12,8,1,12,0.00
2013-3-12,48.8,43.5,35.2,48.0,42.4,35.0,98,96,87,30.12,29.70,7,1,11,0.71
2013-3-13,45.8,38.3,27.3,41.0,27.8,20.0,95,69,39,29.77,29.69,13,4,18,0.00
2013-3-14,31.1,26.0,17.7,24.0,14.2,6.0,77,62,51,29.83,29.70,14,6,21,0.00
2013-3-15,36.3,24.8,14.8,28.0,12.4,3.0,91,62,30,29.86,29.63,11,4,23,0.00
2013-3-16,35.2,28.2,20.6,25.0,13.6,9.0,81,56,35,29.88,29.69,12,2,15,0.00
2013-3-17,31.4,22.7,10.3,14.0,8.1,1.0,93,58,30,30.32,29.88,11,2,25,0.00
2013-3-18,36.9,22.6,5.0,24.0,4.8,-1.0,92,52,23,30.45,30.23,4,1,7,0.00
2013-3-19,31.4,27.6,22.8,30.0,26.4,21.0,96,95,92,30.22,29.68,6,0,10,0.00
2013-3-20,33.6,26.7,18.8,21.0,19.3,17.0,95,75,56,29.80,29.70,0,0,0,0.00
2013-3-21,38.6,25.7,9.8,18.0,13.9,8.0,94,65,34,29.80,29.59,2,0,9,0.09
2013-3-22,36.6,28.8,21.4,24.0,17.2,13.0,75,63,46,29.73,29.62,10,4,21,0.01
2013-3-23,40.4,31.1,23.5,22.0,18.5,15.0,83,62,39,29.79,29.64,16,6,27,0.02
2013-3-24,43.1,34.4,26.3,24.0,22.3,20.0,82,62,45,29.82,29.73,12,3,21,0.00
2013-3-25,42.1,31.8,20.5,29.0,24.6,18.0,93,76,54,29.78,29.53,11,1,15,0.00
2013-3-26,45.8,37.0,31.5,29.0,23.8,18.0,88,61,35,29.79,29.57,12,2,16,0.00
2013-3-27,49.0,39.6,30.8,31.0,23.5,20.0,79,54,36,29.88,29.75,13,4,18,0.00
2013-3-28,46.8,39.2,33.6,33.0,30.4,27.0,92,72,46,30.02,29.88,5,1,16,0.00
2013-3-29,52.8,42.8,35.5,35.0,30.8,27.0,80,64,41,30.04,29.97,8,2,15,0.00
2013-3-30,51.2,40.1,25.5,32.0,23.5,15.0,92,58,24,30.09,30.00,11,2,15,0.00
2013-3-31,55.5,38.7,19.7,36.0,25.1,18.0,96,66,26,30.12,29.75,8,1,15,0.07
2013-4-1,55.5,40.3,29.7,42.0,32.8,11.0,97,77,40,29.76,29.50,21,4,28,0.50
2013-4-2,33.7,29.1,23.2,16.0,12.4,9.0,63,51,36,29.91,29.76,17,6,29,0.00
2013-4-3,40.7,31.5,24.1,16.0,11.3,6.0,61,45,24,30.15,29.90,14,6,23,0.00
2013-4-4,52.0,38.0,24.7,24.0,15.8,10.0,70,44,22,30.29,30.01,11,3,17,0.00
2013-4-5,54.6,43.2,34.2,27.0,23.9,15.0,72,50,22,30.00,29.65,10,4,20,0.00
2013-4-6,41.6,31.2,22.6,25.0,11.2,4.0,73,47,22,30.33,29.87,12,4,27,0.00
2013-4-7,54.9,40.3,19.3,39.0,24.5,16.0,88,57,29,30.32,29.97,11,3,19,0.00
2013-4-8,62.7,47.2,36.9,40.0,36.0,31.0,94,69,31,30.07,29.94,12,2,15,0.00
2013-4-9,63.6,50.1,36.6,50.0,41.1,34.0,97,74,48,30.06,29.86,10,2,22,0.03
2013-4-10,55.2,48.3,42.3,50.0,45.9,41.0,98,91,76,29.99,29.86,2,0,6,0.82
2013-4-11,47.1,41.7,35.1,44.0,35.1,27.0,97,79,50,30.14,29.84,5,1,11,0.07
2013-4-12,36.2,32.3,30.6,32.0,30.7,28.0,97,93,71,30.17,29.84,8,2,13,0.25
2013-4-13,49.9,39.0,31.4,40.0,34.3,31.0,97,84,58,29.94,29.80,5,1,15,0.41
2013-4-14,45.6,39.7,28.4,36.0,30.5,26.0,96,72,52,30.22,29.92,9,3,21,0.00
2013-4-15,57.8,41.4,24.0,36.0,31.0,23.0,97,71,40,30.38,30.22,6,1,12,0.00
2013-4-16,65.7,48.4,29.4,51.0,40.9,29.0,97,78,46,30.38,30.04,17,3,22,0.01
2013-4-17,61.6,51.6,33.5,51.0,35.4,28.0,93,58,29,30.32,30.04,11,3,20,0.01
2013-4-18,61.3,46.4,27.7,45.0,31.7,27.0,96,62,35,30.43,30.12,10,2,15,0.00
2013-4-19,71.8,61.4,50.1,62.0,56.2,45.0,96,84,63,30.12,29.58,14,3,21,0.20
2013-4-20,63.1,47.6,36.4,61.0,36.6,21.0,95,68,41,30.20,29.58,19,4,24,0.29
2013-4-21,50.7,37.9,26.5,24.0,19.7,13.0,85,51,23,30.67,30.21,13,3,21,0.00
2013-4-22,51.2,37.5,22.9,31.0,26.2,21.0,95,68,37,30.76,30.61,11,2,16,0.00
2013-4-23,37.9,35.0,29.8,37.0,33.6,28.0,98,94,87,30.60,30.16,6,1,10,0.02
2013-4-24,73.2,55.0,37.9,51.0,43.0,36.0,98,70,27,30.15,29.76,9,2,14,0.01
2013-4-25,58.7,49.2,31.1,50.0,35.2,26.0,93,63,29,30.27,29.77,14,3,20,0.18
2013-4-26,59.0,44.0,27.3,38.0,32.1,26.0,96,68,35,30.42,30.27,10,1,10,0.00
2013-4-27,63.1,47.8,29.0,43.0,35.8,28.0,98,68,35,30.42,30.26,6,1,9,0.00
2013-4-28,69.1,50.6,30.0,46.0,37.0,29.0,98,66,30,30.32,30.17,6,1,10,0.00
2013-4-29,68.2,55.6,39.0,46.0,38.6,26.0,91,55,33,30.24,30.14,7,2,12,0.00
2013-4-30,69.4,56.6,38.1,36.0,30.3,23.0,79,40,23,30.33,30.22,6,1,11,0.00
2013-5-1,70.9,52.1,28.8,43.0,32.6,27.0,96,56,22,30.45,30.34,5,1,11,0.00
2013-5-2,78.7,56.5,39.6,51.0,39.1,30.0,93,58,23,30.47,30.30,9,2,15,0.00
2013-5-3,63.1,48.0,31.7,45.0,39.3,31.0,97,74,49,30.52,30.37,9,1,13,0.00
2013-5-4,66.4,48.4,31.8,48.0,36.4,26.0,98,69,28,30.36,30.26,7,1,14,0.00
2013-5-5,65.2,46.4,26.0,41.0,34.5,25.0,97,69,34,30.32,30.22,5,1,12,0.00
2013-5-6,73.3,51.3,27.6,46.0,37.6,27.0,98,68,24,30.26,30.11,7,1,10,0.00
2013-5-7,78.5,62.7,41.1,55.0,48.1,38.0,98,65,25,30.15,30.04,8,1,10,0.00
2013-5-8,68.6,59.4,46.1,63.0,56.3,45.0,98,90,72,30.17,30.02,7,1,10,0.27
2013-5-9,66.8,58.6,51.1,60.0,56.8,51.0,98,94,73,30.02,29.86,5,1,7,0.13
2013-5-10,77.0,62.5,44.6,60.0,53.4,44.0,99,75,40,29.93,29.87,7,1,9,0.01
2013-5-11,65.9,61.6,57.1,61.0,58.1,53.0,97,88,71,29.87,29.66,10,2,13,0.38
2013-5-12,65.4,56.0,44.5,58.0,46.4,28.0,97,73,40,29.77,29.55,16,3,20,0.00
2013-5-13,50.9,43.8,37.6,33.0,29.1,26.0,76,57,41,30.03,29.77,12,4,19,0.00
2013-5-14,55.1,44.9,30.9,34.0,30.8,28.0,93,60,37,30.05,29.98,6,2,19,0.00
2013-5-15,62.1,47.1,27.5,51.0,37.6,27.0,97,75,32,30.05,29.65,9,2,19,0.00
2013-5-16,75.6,64.9,52.4,51.0,40.4,31.0,89,45,22,29.79,29.62,15,6,28,0.00
2013-5-17,66.2,53.6,38.9,43.0,39.5,34.0,93,62,32,30.20,29.80,11,2,16,0.00
2013-5-18,72.4,53.5,32.9,49.0,39.0,32.0,98,65,30,30.29,30.20,6,1,11,0.00
2013-5-19,65.8,50.6,41.2,55.0,46.3,40.0,97,86,61,30.32,30.26,6,1,10,0.00
2013-6-3,72.7,61.5,54.3,57.0,47.3,43.0,72,60,53,29.81,29.74,10,4,17,0.00
2013-6-4,67.3,56.9,43.3,47.0,43.4,38.0,91,62,44,30.09,29.81,13,3,18,0.00
2013-6-5,71.6,59.1,42.8,52.0,46.4,42.0,98,67,36,30.17,30.07,6,1,11,0.00
2013-6-6,70.4,60.1,47.0,55.0,50.1,46.0,97,71,49,30.17,30.07,6,1,11,0.04
2013-6-7,52.8,51.2,48.7,52.0,50.3,48.0,98,96,93,30.09,29.84,5,1,10,1.62
2013-6-8,72.0,59.8,49.2,62.0,55.8,49.0,98,87,70,29.98,29.66,10,2,15,0.96
2013-6-9,74.9,64.0,53.2,58.0,55.3,52.0,97,76,50,30.15,29.99,9,2,15,0.00
2013-6-10,68.4,59.2,49.1,61.0,56.1,48.0,98,90,70,30.18,29.99,4,0,10,0.48
2013-6-11,59.0,55.3,52.3,57.0,54.2,52.0,98,96,91,29.98,29.57,5,1,11,1.20
2013-6-12,64.4,58.4,53.2,56.0,53.6,51.0,98,85,69,29.81,29.55,18,3,19,0.07
2013-6-13,63.8,53.7,45.4,59.0,51.8,45.0,98,93,75,29.80,29.69,4,0,8,0.55
2013-6-14,73.7,59.2,48.8,59.0,52.5,48.0,98,81,43,29.77,29.66,9,1,11,0.63
2013-6-15,74.2,63.9,49.6,54.0,48.0,42.0,88,59,33,29.91,29.78,10,2,16,0.00
2013-6-16,73.5,64.3,48.3,59.0,53.0,46.0,92,68,49,29.91,29.68,5,1,11,0.00
2013-6-17,80.5,66.5,55.1,64.0,59.1,54.0,97,79,50,29.87,29.76,9,2,15,0.15
2013-6-18,67.8,58.8,52.3,64.0,57.3,52.0,98,95,83,29.93,29.86,3,0,6,0.32
2013-6-19,72.1,59.9,46.1,54.0,49.0,42.0,98,72,35,30.14,29.90,5,1,9,0.00
2013-6-20,76.3,60.5,39.7,57.0,48.2,39.0,98,69,37,30.25,30.14,5,1,10,0.00
2013-6-21,81.3,67.6,55.0,61.0,55.1,49.0,94,68,35,30.22,30.17,12,1,12,0.00
2013-6-22,82.8,70.0,55.0,66.0,60.6,54.0,98,74,48,30.20,30.08,6,1,11,0.00
2013-6-23,87.4,76.8,65.6,73.0,66.4,60.0,85,71,56,30.11,29.93,7,2,17,0.00
2013-6-24,88.6,77.5,66.5,72.0,68.4,62.0,96,75,54,29.96,29.85,12,3,17,0.06
2013-6-25,87.7,75.2,65.1,72.0,67.8,63.0,96,79,55,29.89,29.69,9,2,18,0.38
2013-6-26,76.8,70.2,64.5,71.0,67.7,64.0,97,92,80,29.82,29.69,6,1,10,0.13
2013-6-27,70.5,65.4,61.7,68.0,64.5,61.0,98,96,89,29.82,29.74,4,0,6,0.04
2013-6-28,77.8,64.3,55.2,72.0,62.9,55.0,98,95,81,29.73,29.45,4,1,10,0.67
2013-6-29,81.4,72.6,65.8,70.0,67.6,65.0,98,85,65,29.67,29.47,7,1,12,0.01
2013-6-30,84.5,73.3,67.1,74.0,68.5,65.0,98,86,61,29.89,29.67,5,1,16,0.54
2013-7-1,73.9,70.8,67.1,72.0,69.9,67.0,98,97,92,30.04,29.89,3,0,6,0.53
2013-7-2,81.1,71.6,61.1,74.0,68.9,61.0,98,91,76,30.17,30.02,6,1,11,0.00
2013-7-3,84.3,73.6,60.2,74.0,68.7,60.0,98,85,68,30.17,30.10,7,2,11,0.00
2013-7-4,88.7,80.5,72.4,75.0,72.3,70.0,93,77,60,30.16,30.05,7,2,13,0.00
2013-7-5,90.0,81.6,73.5,76.0,73.0,71.0,92,76,60,30.11,29.99,8,2,13,0.00
2013-7-6,84.7,78.0,72.9,73.0,69.4,62.0,90,75,52,30.04,29.95,7,2,18,0.00
2013-7-7,88.0,77.1,68.8,77.0,68.0,60.0,95,74,59,29.99,29.88,6,1,10,0.00
2013-7-8,86.9,74.8,65.6,74.0,69.3,64.0,97,84,55,30.03,29.87,5,1,11,0.00
2013-7-9,72.7,67.1,62.1,68.0,65.2,61.0,98,93,84,30.07,30.01,2,0,6,0.00
2013-7-10,80.1,70.0,64.5,76.0,68.8,64.0,98,96,83,30.05,29.76,4,1,10,0.76
2013-7-11,81.1,73.5,64.9,73.0,69.6,61.0,98,88,69,29.92,29.74,5,1,8,0.00
2013-7-12,77.0,68.8,60.3,66.0,61.0,58.0,95,77,57,30.18,29.92,7,1,11,0.00
2013-7-13,75.8,67.2,58.8,71.0,64.1,58.0,97,90,78,30.29,30.18,2,0,6,0.00
2013-7-14,86.5,76.0,65.2,74.0,70.0,65.0,98,83,59,30.28,30.18,7,1,11,0.01
2013-7-15,89.7,76.5,64.3,74.0,69.2,64.0,98,80,53,30.18,30.08,6,1,9,0.00
2013-7-16,89.7,78.7,67.3,72.0,67.9,65.0,96,71,51,30.14,30.09,6,1,13,0.00
2013-7-17,90.6,78.1,62.5,74.0,68.9,62.0,98,76,51,30.15,29.95,4,1,10,0.00
2013-7-18,90.7,81.0,70.9,78.0,72.3,69.0,94,76,50,29.97,29.89,6,1,12,0.00
2013-7-19,92.2,82.7,68.6,76.0,72.2,68.0,97,72,52,29.90,29.67,12,3,19,0.00
2013-7-20,86.6,78.5,68.0,73.0,67.4,62.0,82,69,60,29.77,29.62,10,2,16,0.00
2013-7-21,81.3,71.5,61.8,70.0,64.4,60.0,97,79,59,29.96,29.78,5,0,7,0.00
2013-7-22,79.5,67.3,57.4,70.0,64.4,57.0,98,91,72,30.00,29.86,4,0,9,0.00
2013-7-23,77.6,68.2,64.6,72.0,66.8,64.0,98,96,80,29.86,29.51,3,0,6,1.48
2013-7-24,78.9,70.6,57.3,70.0,64.1,52.0,98,81,60,29.95,29.56,7,2,15,0.00
2013-7-25,66.9,59.4,53.5,58.0,53.6,47.0,97,81,67,30.09,29.95,6,1,11,0.02
2013-7-26,71.6,63.3,59.0,66.0,60.3,58.0,97,90,75,30.06,29.94,13,1,13,0.37
2013-7-27,81.5,68.7,55.1,67.0,60.5,54.0,97,78,48,30.03,29.96,5,1,10,0.00
2013-7-28,79.9,67.9,55.9,70.0,63.9,55.0,98,88,62,29.99,29.94,5,1,7,0.14
2013-7-29,82.9,70.1,59.8,71.0,65.4,58.0,98,86,49,30.02,29.92,6,1,7,0.00
2013-7-30,77.0,67.4,57.2,59.0,56.9,54.0,95,71,46,30.08,30.01,10,2,13,0.00
2013-7-31,79.0,67.0,56.5,66.0,59.0,55.0,96,78,45,30.11,30.02,3,0,9,0.00
2013-8-1,76.6,65.0,51.7,67.0,60.6,51.0,98,87,63,30.02,29.84,8,1,12,1.28
2013-8-2,78.4,67.8,60.9,67.0,61.6,55.0,98,83,48,29.84,29.77,8,1,14,0.83
2013-8-3,77.0,66.7,56.2,63.0,57.8,53.0,95,75,43,29.83,29.75,9,2,17,0.00
2013-8-4,75.2,64.6,54.0,59.0,54.9,51.0,96,72,48,29.88,29.76,8,2,12,0.00
2013-8-5,70.6,60.3,48.5,52.0,47.9,43.0,93,67,37,30.04,29.87,8,3,18,0.00
2013-8-6,75.4,59.4,41.9,62.0,51.4,41.0,98,78,47,30.14,30.04,4,0,7,0.00
2013-8-7,76.8,63.6,49.6,63.0,55.6,49.0,98,78,44,30.16,30.08,5,1,11,0.00
2013-8-8,79.9,70.4,61.7,70.0,66.0,59.0,96,86,70,30.08,29.97,5,1,15,0.00
2013-8-9,74.2,70.8,68.9,73.0,69.4,68.0,98,95,90,29.98,29.71,6,1,8,2.04
2013-8-10,77.6,69.4,58.7,68.0,60.0,52.0,97,74,48,29.99,29.76,9,2,21,0.01
2013-8-11,75.8,62.1,46.8,60.0,53.4,46.0,98,76,46,30.06,29.99,6,1,10,0.00
2013-8-12,77.7,65.0,51.8,64.0,57.2,51.0,98,79,51,30.02,29.90,4,1,10,0.00
2013-8-13,71.5,64.9,58.1,68.0,63.3,57.0,98,94,86,29.91,29.66,4,0,6,0.09
2013-8-14,68.9,61.9,54.7,63.0,53.6,49.0,98,75,58,29.94,29.64,14,4,21,0.00
2013-8-15,71.6,60.2,47.7,55.0,51.2,46.0,97,75,50,30.09,29.94,7,2,12,0.00
2013-8-16,75.0,61.2,47.7,59.0,53.1,47.0,98,77,46,30.18,30.09,5,1,12,0.00
2013-8-17,78.4,62.6,47.3,65.0,56.4,47.0,98,82,49,30.26,30.18,4,0,6,0.00
2013-8-18,79.1,64.4,51.1,66.0,58.8,51.0,98,84,48,30.26,30.07,3,0,6,0.00
2013-8-19,77.5,67.8,56.2,64.0,60.1,55.0,97,78,55,30.06,29.93,8,1,11,0.00
2013-8-20,83.0,69.6,57.7,65.0,60.7,56.0,96,76,46,30.08,29.97,5,1,7,0.00
2013-8-21,84.3,70.9,58.7,68.0,62.5,58.0,97,77,46,30.12,30.00,7,1,9,0.00
2013-8-22,85.0,73.4,59.7,70.0,65.7,59.0,97,78,53,30.01,29.80,6,1,10,0.00
2013-8-23,75.3,68.2,55.6,67.0,57.6,49.0,92,70,45,30.11,29.80,8,2,15,0.00
2013-8-24,75.3,58.9,43.2,56.0,49.6,42.0,98,75,40,30.32,30.12,3,1,8,0.00
2013-8-25,78.5,63.7,45.9,62.0,52.8,45.0,98,72,39,30.36,30.15,6,1,11,0.00
2013-8-26,76.6,68.7,59.5,68.0,62.6,56.0,96,81,65,30.15,29.84,13,2,13,0.09
2013-8-27,83.6,72.3,65.2,70.0,66.8,64.0,97,84,57,29.88,29.81,5,0,8,0.00
2013-8-28,81.1,69.2,58.0,72.0,65.7,58.0,98,89,64,29.97,29.83,4,0,7,0.06
2013-8-29,64.3,61.7,58.5,63.0,61.1,58.0,98,97,95,30.05,29.92,4,0,10,0.47
2013-8-30,81.6,68.3,55.7,70.0,63.3,55.0,99,85,59,30.00,29.79,6,1,9,0.00
2013-8-31,79.1,71.8,66.3,74.0,69.6,66.0,98,92,83,29.80,29.74,6,1,12,0.40
2013-9-1,79.9,72.9,67.2,76.0,70.1,65.0,98,91,74,29.84,29.75,6,1,12,0.12
2013-9-2,77.5,71.8,67.2,74.0,70.4,67.0,98,95,86,29.82,29.68,4,0,13,0.71
2013-9-3,76.4,67.2,60.0,70.0,63.6,56.0,99,88,74,29.78,29.66,5,1,10,0.01
2013-9-4,76.5,65.7,54.9,60.0,56.6,53.0,96,74,51,29.90,29.78,6,2,15,0.00
2013-9-5,66.9,59.2,43.8,59.0,50.4,42.0,96,75,46,30.14,29.82,6,1,11,0.00
2013-9-6,65.8,52.2,36.8,49.0,42.3,36.0,98,73,41,30.23,30.07,4,1,10,0.00
2013-9-7,75.7,61.3,46.3,57.0,50.4,44.0,92,69,45,30.06,29.82,6,1,15,0.00
2013-9-8,67.8,59.6,44.3,61.0,49.3,40.0,89,70,48,30.07,29.73,9,2,18,0.00
2013-9-9,66.6,53.3,35.0,51.0,43.8,34.0,98,73,43,30.22,30.07,5,1,9,0.00
2013-9-10,75.2,65.2,56.2,70.0,62.5,51.0,97,91,82,30.12,30.00,10,2,13,0.16
2013-9-11,89.7,79.2,68.1,77.0,72.7,66.0,97,82,59,30.03,29.89,14,2,19,0.25
2013-9-12,79.8,70.1,64.2,75.0,67.7,64.0,98,92,84,29.89,29.62,6,1,13,1.29
2013-9-13,71.5,63.7,55.5,67.0,61.3,52.0,98,92,80,29.75,29.56,8,1,11,0.08
2013-9-14,61.8,55.1,48.7,54.0,50.8,47.0,96,85,70,30.03,29.74,9,2,16,0.00
2013-9-15,68.2,54.9,43.0,54.0,48.9,42.0,98,82,54,30.15,30.03,5,1,8,0.01
2013-9-16,63.4,54.8,42.3,55.0,48.6,35.0,95,80,67,30.24,30.00,7,2,13,0.02
2013-9-17,62.2,46.0,32.1,47.0,38.7,31.0,98,78,49,30.43,30.25,5,1,10,0.00
2013-9-18,70.8,54.0,34.8,51.0,43.4,34.0,98,72,33,30.33,30.12,5,1,8,0.00
2013-9-19,76.7,60.8,47.5,58.0,51.4,45.0,96,74,40,30.12,30.01,2,0,7,0.00
2013-9-20,76.0,58.7,42.9,60.0,52.2,42.0,98,82,48,30.07,29.98,4,0,7,0.00
2013-9-21,71.1,62.6,51.6,63.0,57.9,51.0,98,85,65,30.00,29.68,9,2,14,0.01
2013-9-22,66.7,59.3,47.2,64.0,53.6,42.0,96,82,61,29.82,29.56,6,2,16,0.85
2013-9-23,57.9,48.7,42.6,45.0,40.7,37.0,89,75,59,30.00,29.82,10,3,18,0.00
2013-9-24,62.5,50.4,42.1,45.0,41.6,38.0,92,73,48,29.98,29.81,11,2,15,0.00
2013-9-25,66.9,55.4,45.4,54.0,48.0,43.0,94,77,58,29.97,29.86,7,1,15,0.00
2013-9-26,65.7,54.7,47.2,52.0,48.5,46.0,97,81,55,30.12,29.97,4,0,8,0.00
2013-9-27,65.2,54.5,43.3,55.0,50.2,43.0,98,86,67,30.26,30.12,4,0,7,0.00
2013-9-28,72.5,53.5,39.0,58.0,48.5,39.0,98,85,56,30.34,30.25,3,0,8,0.00
2013-9-29,67.5,49.9,36.2,55.0,44.7,36.0,98,85,50,30.26,30.11,4,0,8,0.00
2013-9-30,69.4,49.5,33.0,55.0,44.4,33.0,98,85,53,30.12,29.97,4,0,10,0.01
2013-10-1,74.2,57.5,39.9,59.0,50.7,39.0,98,81,51,29.97,29.85,7,1,12,0.00
2013-10-2,75.3,63.8,51.0,61.0,56.2,50.0,96,78,58,29.88,29.82,12,2,21,0.00
2013-10-3,74.4,60.7,47.3,56.0,50.3,45.0,96,72,37,30.07,29.96,3,0,9,0.00
2013-10-4,61.3,54.2,46.1,58.0,52.6,45.0,98,94,82,30.08,30.03,2,0,2,0.25
2013-10-5,65.7,58.6,54.2,58.0,55.7,54.0,98,90,73,30.11,30.05,4,0,6,0.00
2013-10-6,57.4,51.5,48.5,57.0,50.8,48.0,98,97,96,30.22,30.10,4,0,6,0.54
2013-10-7,70.9,58.6,51.2,67.0,57.5,51.0,99,96,86,30.13,29.75,9,1,17,0.96
2013-10-8,61.1,50.6,35.5,51.0,43.4,35.0,97,78,48,30.37,29.88,9,2,15,0.01
2013-10-9,60.0,42.9,29.9,47.0,38.4,29.0,98,86,53,30.50,30.37,7,0,9,0.00
2013-10-10,58.1,45.1,31.3,50.0,41.8,31.0,98,89,65,30.38,30.20,2,0,5,0.01
2013-10-11,70.0,51.5,39.0,51.0,44.8,35.0,98,82,33,30.20,30.11,3,0,7,0.00
2013-10-12,52.6,47.7,38.5,52.0,47.2,38.0,98,98,97,30.41,30.16,3,0,7,0.06
2013-10-13,55.5,46.6,37.0,51.0,44.8,37.0,99,93,81,30.45,30.38,3,0,7,0.01
2013-10-14,66.2,47.5,30.4,51.0,42.8,30.0,99,86,53,30.40,30.23,6,0,8,0.00
2013-10-15,63.7,55.8,49.0,57.0,52.2,48.0,98,88,76,30.27,30.16,4,0,7,0.00
2013-10-16,57.7,51.2,43.0,51.0,48.8,42.0,98,92,73,30.16,29.90,4,0,5,0.00
2013-10-17,69.5,57.8,45.5,58.0,51.6,45.0,98,82,44,29.89,29.68,7,2,15,0.00
2013-10-18,61.3,55.9,42.9,60.0,48.5,38.0,98,77,58,29.88,29.57,12,2,19,0.19
2013-10-19,63.1,49.7,33.3,46.0,41.1,33.0,98,75,46,29.95,29.73,7,1,12,0.00
2013-10-20,56.6,48.3,35.3,49.0,39.2,34.0,97,73,47,30.01,29.67,18,3,21,0.01
2013-10-21,62.8,46.2,30.0,44.0,38.2,29.0,98,77,47,30.11,29.97,11,1,13,0.00
2013-10-22,59.4,50.5,42.5,51.0,44.4,33.0,97,80,66,29.96,29.70,8,2,17,0.00
2013-10-23,50.9,42.2,29.3,36.0,32.8,28.0,96,71,51,29.78,29.57,7,1,12,0.00
2013-10-24,47.2,41.1,33.9,35.0,30.1,27.0,84,66,49,29.88,29.65,10,2,25,0.00
2013-10-25,45.1,36.7,25.6,33.0,28.3,24.0,96,74,49,30.14,29.88,13,2,18,0.00
2013-10-26,50.3,41.0,27.9,35.0,29.6,26.0,97,67,43,30.14,29.86,9,2,19,0.00
2013-10-27,49.4,43.6,31.8,36.0,32.2,28.0,87,65,49,30.04,29.78,14,3,24,0.00
2013-10-28,54.0,39.6,26.7,38.0,30.3,22.0,96,71,44,30.35,30.04,10,2,19,0.00
2013-10-29,44.6,29.7,17.0,26.0,19.7,15.0,95,71,31,30.46,30.35,5,0,7,0.00
2013-10-30,48.4,34.6,22.5,38.0,29.9,20.0,97,83,67,30.37,30.21,8,1,18,0.01
2013-10-31,59.0,44.9,27.5,58.0,43.8,27.0,98,96,91,30.25,29.77,7,1,13,0.32
2013-11-1,65.7,60.7,52.2,61.0,55.9,46.0,95,85,70,29.75,29.40,16,5,25,0.24
2013-11-2,61.6,48.3,35.0,48.0,42.3,34.0,98,82,48,29.73,29.58,4,1,15,0.04
2013-11-3,43.8,36.3,28.0,42.0,24.6,15.0,94,65,39,30.42,29.74,9,3,14,0.00
2013-11-4,39.0,27.6,18.3,19.0,16.4,13.0,92,65,35,30.72,30.43,7,1,8,0.00
2013-11-5,47.2,32.1,17.9,36.0,26.1,16.0,95,81,55,30.73,30.51,5,1,11,0.00
2013-11-6,56.8,48.2,39.2,47.0,41.7,36.0,91,79,61,30.51,30.00,12,2,15,0.00
2013-11-7,59.3,50.5,36.5,56.0,45.9,27.0,93,84,67,30.00,29.66,12,4,19,0.06
2013-11-8,42.3,34.9,26.1,33.0,25.2,21.0,85,68,59,30.08,29.80,15,4,21,0.00
2013-11-9,40.6,34.3,27.3,29.0,23.6,21.0,82,66,51,30.20,30.01,9,2,14,0.00
2013-11-10,47.8,40.8,32.5,39.0,34.6,29.0,97,79,67,30.01,29.73,11,2,19,0.05
2013-11-11,47.5,40.6,34.8,31.0,27.6,24.0,75,61,41,30.08,29.85,12,4,24,0.00
2013-11-12,43.0,31.1,23.4,34.0,21.5,15.0,90,68,58,30.17,29.86,11,4,19,0.01
2013-11-13,30.4,25.2,19.7,18.0,13.5,9.0,78,62,45,30.30,30.14,9,3,16,0.00
2013-11-14,46.7,36.8,27.8,26.0,20.6,17.0,70,53,39,30.13,30.04,11,3,17,0.00
2013-11-15,56.5,43.0,26.8,26.0,18.8,10.0,71,41,16,30.18,30.10,6,1,11,0.00
2013-11-16,56.6,41.8,27.6,33.0,28.1,24.0,94,62,32,30.31,30.17,6,1,8,0.00
2013-11-17,44.5,38.0,27.3,43.0,36.8,26.0,98,95,86,30.31,29.86,1,0,2,0.07
2013-11-18,59.6,51.4,43.4,58.0,44.1,31.0,98,78,48,29.84,29.52,9,2,26,0.33
2013-11-19,43.8,34.4,26.5,31.0,21.5,15.0,71,60,49,30.29,29.65,16,5,20,0.00
2013-11-20,37.3,26.6,16.0,16.0,14.6,9.0,89,63,32,30.64,30.30,10,2,21,0.00
2013-11-21,43.6,29.8,12.5,32.0,18.9,11.0,94,68,31,30.66,30.37,7,1,12,0.00
2013-11-22,44.9,39.9,36.8,44.0,38.1,33.0,98,93,76,30.36,29.80,10,1,14,0.21
2013-11-23,45.1,34.5,24.8,44.0,24.6,7.0,95,68,44,29.91,29.76,17,6,26,0.00
2013-11-24,24.6,18.9,14.7,10.0,2.2,-4.0,64,49,34,30.18,29.78,24,8,33,0.00
2013-11-25,28.8,20.9,11.7,13.0,2.4,-7.0,61,46,27,30.37,30.19,14,4,22,0.00
2013-11-26,31.6,28.1,25.4,31.0,21.8,13.0,96,79,55,30.32,30.07,5,1,8,0.01
2013-11-27,48.8,37.1,31.8,48.0,35.9,30.0,98,95,87,30.06,29.25,10,2,27,0.57
2013-11-28,33.2,25.0,15.8,30.0,14.2,5.0,88,65,41,30.42,29.46,18,5,26,0.00
2013-11-29,27.7,19.5,7.3,14.0,8.7,0.0,91,65,41,30.76,30.42,8,2,15,0.00
2013-11-30,28.0,16.8,1.6,18.0,9.8,-1.0,92,75,52,30.82,30.45,5,0,9,0.00
2013-12-1,34.7,31.3,24.4,32.0,29.0,19.0,97,91,79,30.45,30.03,2,0,5,0.02
2013-12-2,37.4,34.2,32.5,37.0,33.7,32.0,98,97,97,30.03,29.92,0,0,2,0.03
2013-12-3,46.3,33.4,26.9,41.0,30.8,26.0,98,91,67,29.95,29.87,7,0,13,0.00
2013-12-4,40.2,31.2,25.2,29.0,26.1,24.0,97,82,61,30.20,29.96,7,1,12,0.00
2013-12-5,52.9,35.0,24.4,52.0,33.9,23.0,98,96,89,30.21,29.91,6,0,14,0.01
2013-12-6,53.2,43.5,31.9,52.0,40.4,29.0,98,89,62,30.13,29.86,9,2,16,0.13
2013-12-7,33.4,28.6,19.1,31.0,25.2,17.0,97,87,73,30.45,30.06,11,2,16,0.03
2013-12-8,26.5,22.4,14.1,20.0,16.5,12.0,94,79,61,30.58,30.45,6,1,10,0.00
2013-12-9,33.1,27.5,20.9,32.0,26.0,18.0,98,93,81,30.50,29.88,6,0,7,0.00
2013-12-10,32.9,27.6,17.4,32.0,24.2,13.0,95,87,76,29.98,29.79,11,3,16,0.00
2013-12-11,26.9,21.4,15.8,18.0,15.3,12.0,89,78,61,30.17,29.98,12,4,19,0.00
2013-12-12,19.8,14.6,8.4,16.0,5.3,-1.0,91,68,42,30.26,30.05,13,2,22,0.00
2013-12-13,23.7,15.4,5.0,18.0,9.8,1.0,86,78,68,30.40,29.98,10,2,19,0.00
2013-12-14,11.9,7.5,2.3,9.0,-0.3,-6.0,90,72,46,30.60,30.22,5,1,11,0.00
2013-12-15,26.1,19.6,11.0,23.0,16.9,9.0,93,89,82,30.21,29.49,5,0,11,0.00
2013-12-16,22.5,17.7,2.9,19.0,8.6,0.0,88,68,49,30.19,29.73,10,3,23,0.00
2013-12-17,14.9,3.2,-13.2,13.0,0.1,-17.0,91,87,76,30.27,30.03,3,0,3,0.00
2013-12-18,29.1,21.8,14.6,20.0,17.5,12.0,94,84,67,30.06,29.92,0,0,0,0.00
2013-12-19,36.8,29.2,17.9,26.0,22.5,16.0,93,77,60,30.11,29.95,8,1,20,0.01
2013-12-20,50.0,37.2,27.1,37.0,30.7,25.0,93,79,50,30.12,29.90,5,1,13,0.13
2013-12-21,58.1,47.3,36.6,48.0,41.0,32.0,96,79,65,29.93,29.83,9,1,12,0.01
2013-12-22,49.7,37.4,31.3,49.0,36.7,31.0,98,97,92,30.01,29.79,4,0,9,0.10
2013-12-23,38.7,32.5,30.4,38.0,31.9,30.0,98,98,91,30.10,29.97,8,1,11,0.41
2013-12-24,32.9,27.5,20.1,31.0,18.4,10.0,91,69,53,30.19,30.05,12,3,17,0.00
2013-12-25,19.3,13.8,7.7,14.0,3.5,0.0,85,65,44,30.53,30.20,8,2,21,0.00
2013-12-26,29.4,21.9,11.8,27.0,18.4,8.0,91,86,73,30.49,30.09,8,1,14,0.00
2013-12-27,29.6,25.6,16.8,22.0,19.4,15.0,93,78,64,30.25,30.18,8,2,14,0.00
2013-12-28,42.6,32.9,21.3,30.0,25.5,18.0,89,75,57,30.20,29.98,14,3,21,0.05
2013-12-29,42.9,35.7,30.9,36.0,30.8,27.0,97,83,61,30.01,29.49,9,1,15,0.99
2013-12-30,36.4,28.3,11.1,34.0,21.6,7.0,98,77,52,30.14,29.55,16,4,23,0.01
2013-12-31,20.1,13.2,2.8,14.0,6.0,0.0,90,74,50,30.17,30.01,11,2,17,0.00
2014-1-1,20.9,14.8,8.7,10.0,6.5,4.0,91,71,51,30.38,30.18,12,3,19,0.00
2014-1-2,14.0,6.7,-2.1,12.0,3.7,-6.0,90,87,85,30.35,29.90,5,1,17,0.00